Hyderabad Weather



Hyderabad's Current Weather

Temprature 36.752o clear sky

clear sky

Rain: 0 %

Min Temprature36.752o
Max Temprature36.752o
Humidity12
Wind Speed4.07 m/h
Sun Rise06:25:56
Sun Set17:57:13
Current Time: 18-Oct-2019 16:34:14
Lat/Lon: 25.38, 68.38




Hyderabad's Geo Location



Hyderabad's Weather Forecast

Time Overall Temp Min Temp Max Temp Humidity Wind Speed Rain
18-Oct-2019 (Fri)
17:00:00 clear sky 36.520 36.520 37.000 10 3.43 m/h 0 %
20:00:00 clear sky 32.090 32.090 32.450 27 7.29 m/h 0 %
23:00:00 clear sky 29.190 29.190 29.428 39 3.88 m/h 0 %
19-Oct-2019 (Sat)
02:00:00 clear sky 27.820 27.820 27.938 38 2.2 m/h 0 %
05:00:00 clear sky 26.623 26.623 26.623 35 1.45 m/h 0 %
08:00:00 clear sky 28.121 28.121 28.121 18 1.93 m/h 0 %
11:00:00 clear sky 32.420 32.420 32.420 17 4.19 m/h 0 %
14:00:00 scattered clouds 34.996 34.996 34.996 14 4.16 m/h 0 %
17:00:00 scattered clouds 34.872 34.872 34.872 14 2.19 m/h 0 %
20:00:00 few clouds 31.378 31.378 31.378 19 1.5 m/h 0 %
23:00:00 scattered clouds 30.627 30.627 30.627 21 0.33 m/h 0 %
20-Oct-2019 (Sun)
02:00:00 clear sky 28.447 28.447 28.447 24 1.65 m/h 0 %
05:00:00 clear sky 26.744 26.744 26.744 26 1.59 m/h 0 %
08:00:00 clear sky 29.112 29.112 29.112 21 1.89 m/h 0 %
11:00:00 clear sky 33.760 33.760 33.760 16 3.49 m/h 0 %
14:00:00 clear sky 35.972 35.972 35.972 13 2.6 m/h 0 %
17:00:00 clear sky 35.738 35.738 35.738 13 1.46 m/h 0 %
20:00:00 clear sky 31.792 31.792 31.792 17 1.56 m/h 0 %
23:00:00 clear sky 29.787 29.787 29.787 26 4.1 m/h 0 %
21-Oct-2019 (Mon)
02:00:00 clear sky 28.250 28.250 28.250 36 3.33 m/h 0 %
05:00:00 clear sky 26.931 26.931 26.931 37 1.88 m/h 0 %
08:00:00 clear sky 28.459 28.459 28.459 34 3.24 m/h 0 %
11:00:00 clear sky 33.497 33.497 33.497 22 3.27 m/h 0 %
14:00:00 clear sky 35.735 35.735 35.735 15 2.52 m/h 0 %
17:00:00 clear sky 35.284 35.284 35.284 15 3.29 m/h 0 %
20:00:00 clear sky 32.104 32.104 32.104 19 1.86 m/h 0 %
23:00:00 clear sky 28.960 28.960 28.960 43 6.53 m/h 0 %
22-Oct-2019 (Tue)
02:00:00 clear sky 27.716 27.716 27.716 47 3.78 m/h 0 %
05:00:00 clear sky 26.829 26.829 26.829 48 3.26 m/h 0 %
08:00:00 clear sky 28.502 28.502 28.502 37 2.82 m/h 0 %
11:00:00 clear sky 33.659 33.659 33.659 23 4.55 m/h 0 %
14:00:00 clear sky 35.619 35.619 35.619 17 3.19 m/h 0 %
17:00:00 clear sky 35.372 35.372 35.372 15 2.97 m/h 0 %
20:00:00 clear sky 31.350 31.350 31.350 23 4.31 m/h 0 %
23:00:00 clear sky 29.049 29.049 29.049 35 5.76 m/h 0 %
23-Oct-2019 (Wed)
02:00:00 clear sky 27.746 27.746 27.746 35 4.73 m/h 0 %
05:00:00 clear sky 26.187 26.187 26.187 43 3.38 m/h 0 %
08:00:00 clear sky 28.219 28.219 28.219 32 3.57 m/h 0 %
11:00:00 clear sky 34.365 34.365 34.365 16 5.38 m/h 0 %
14:00:00 clear sky 36.349 36.349 36.349 14 4.28 m/h 0 %

Famous Cities (61)